sensor_id;sensor_type;location;lat;lon;timestamp;P1;durP1;ratioP1;P2;durP2;ratioP2
17151;SDS011;8691;50.828;4.700;2022-12-08T00:02:18;14.73;;;11.67;;
17151;SDS011;8691;50.828;4.700;2022-12-08T00:04:45;14.20;;;11.27;;
17151;SDS011;8691;50.828;4.700;2022-12-08T00:07:31;13.33;;;11.10;;
17151;SDS011;8691;50.828;4.700;2022-12-08T00:10:15;16.77;;;11.30;;
17151;SDS011;8691;50.828;4.700;2022-12-08T00:12:42;16.30;;;12.73;;
17151;SDS011;8691;50.828;4.700;2022-12-08T00:15:09;18.20;;;12.73;;
17151;SDS011;8691;50.828;4.700;2022-12-08T00:17:35;24.45;;;20.85;;
17151;SDS011;8691;50.828;4.700;2022-12-08T00:20:03;25.23;;;22.07;;
17151;SDS011;8691;50.828;4.700;2022-12-08T00:22:30;24.53;;;21.93;;
17151;SDS011;8691;50.828;4.700;2022-12-08T00:24:57;26.37;;;22.97;;
17151;SDS011;8691;50.828;4.700;2022-12-08T00:27:24;26.77;;;22.87;;
17151;SDS011;8691;50.828;4.700;2022-12-08T00:29:51;27.10;;;24.03;;
17151;SDS011;8691;50.828;4.700;2022-12-08T00:32:18;26.90;;;23.10;;
17151;SDS011;8691;50.828;4.700;2022-12-08T00:34:47;27.10;;;22.97;;
17151;SDS011;8691;50.828;4.700;2022-12-08T00:37:13;26.35;;;23.60;;
17151;SDS011;8691;50.828;4.700;2022-12-08T00:39:40;23.43;;;17.47;;
17151;SDS011;8691;50.828;4.700;2022-12-08T00:42:06;21.80;;;15.80;;
17151;SDS011;8691;50.828;4.700;2022-12-08T00:44:40;18.40;;;15.40;;
17151;SDS011;8691;50.828;4.700;2022-12-08T00:47:06;24.53;;;16.37;;
17151;SDS011;8691;50.828;4.700;2022-12-08T00:49:33;20.13;;;15.47;;
17151;SDS011;8691;50.828;4.700;2022-12-08T00:52:00;21.27;;;15.63;;
17151;SDS011;8691;50.828;4.700;2022-12-08T00:54:27;20.30;;;15.83;;
17151;SDS011;8691;50.828;4.700;2022-12-08T00:56:54;21.30;;;14.87;;
17151;SDS011;8691;50.828;4.700;2022-12-08T00:59:20;25.03;;;16.77;;
17151;SDS011;8691;50.828;4.700;2022-12-08T01:01:47;22.77;;;15.73;;
17151;SDS011;8691;50.828;4.700;2022-12-08T01:04:14;21.97;;;15.87;;
17151;SDS011;8691;50.828;4.700;2022-12-08T01:06:40;23.67;;;16.13;;
17151;SDS011;8691;50.828;4.700;2022-12-08T01:09:07;19.57;;;14.80;;
17151;SDS011;8691;50.828;4.700;2022-12-08T01:11:34;20.43;;;15.57;;
17151;SDS011;8691;50.828;4.700;2022-12-08T01:14:01;20.60;;;15.57;;
17151;SDS011;8691;50.828;4.700;2022-12-08T01:16:29;23.23;;;16.00;;
17151;SDS011;8691;50.828;4.700;2022-12-08T01:18:58;20.27;;;16.43;;
17151;SDS011;8691;50.828;4.700;2022-12-08T01:21:25;22.57;;;15.63;;
17151;SDS011;8691;50.828;4.700;2022-12-08T01:23:52;23.70;;;16.20;;
17151;SDS011;8691;50.828;4.700;2022-12-08T01:26:18;22.73;;;16.20;;
17151;SDS011;8691;50.828;4.700;2022-12-08T01:28:46;20.40;;;16.13;;
17151;SDS011;8691;50.828;4.700;2022-12-08T01:31:16;23.43;;;15.40;;
17151;SDS011;8691;50.828;4.700;2022-12-08T01:33:42;19.57;;;14.87;;
17151;SDS011;8691;50.828;4.700;2022-12-08T01:36:16;30.27;;;25.00;;
17151;SDS011;8691;50.828;4.700;2022-12-08T01:38:36;30.60;;;25.83;;
17151;SDS011;8691;50.828;4.700;2022-12-08T01:41:02;32.27;;;26.17;;
17151;SDS011;8691;50.828;4.700;2022-12-08T01:46:24;24.83;;;17.93;;
17151;SDS011;8691;50.828;4.700;2022-12-08T01:48:52;21.10;;;16.70;;
17151;SDS011;8691;50.828;4.700;2022-12-08T01:51:17;23.13;;;17.27;;
17151;SDS011;8691;50.828;4.700;2022-12-08T01:53:44;22.50;;;16.63;;
17151;SDS011;8691;50.828;4.700;2022-12-08T01:56:12;24.10;;;16.37;;
17151;SDS011;8691;50.828;4.700;2022-12-08T01:58:39;19.70;;;15.03;;
17151;SDS011;8691;50.828;4.700;2022-12-08T02:01:04;25.93;;;17.83;;
17151;SDS011;8691;50.828;4.700;2022-12-08T02:03:37;25.50;;;16.83;;
17151;SDS011;8691;50.828;4.700;2022-12-08T02:06:02;25.97;;;17.30;;
17151;SDS011;8691;50.828;4.700;2022-12-08T02:08:28;24.53;;;16.93;;
17151;SDS011;8691;50.828;4.700;2022-12-08T02:10:55;39.90;;;28.43;;
17151;SDS011;8691;50.828;4.700;2022-12-08T02:13:22;38.67;;;30.47;;
17151;SDS011;8691;50.828;4.700;2022-12-08T02:21:27;35.90;;;28.97;;
17151;SDS011;8691;50.828;4.700;2022-12-08T02:24:12;39.27;;;30.10;;
17151;SDS011;8691;50.828;4.700;2022-12-08T02:29:30;41.87;;;30.27;;
17151;SDS011;8691;50.828;4.700;2022-12-08T02:35:26;31.67;;;21.27;;
17151;SDS011;8691;50.828;4.700;2022-12-08T02:38:04;29.90;;;19.90;;
17151;SDS011;8691;50.828;4.700;2022-12-08T02:43:13;29.07;;;17.90;;
17151;SDS011;8691;50.828;4.700;2022-12-08T02:45:35;39.30;;;30.35;;
17151;SDS011;8691;50.828;4.700;2022-12-08T02:48:05;42.10;;;31.27;;
17151;SDS011;8691;50.828;4.700;2022-12-08T02:50:33;39.45;;;31.62;;
17151;SDS011;8691;50.828;4.700;2022-12-08T02:52:59;32.73;;;22.07;;
17151;SDS011;8691;50.828;4.700;2022-12-08T02:55:28;36.57;;;23.90;;
17151;SDS011;8691;50.828;4.700;2022-12-08T02:57:59;24.43;;;18.97;;
17151;SDS011;8691;50.828;4.700;2022-12-08T03:00:30;31.37;;;21.13;;
17151;SDS011;8691;50.828;4.700;2022-12-08T03:08:31;30.67;;;19.67;;
17151;SDS011;8691;50.828;4.700;2022-12-08T03:11:10;29.47;;;19.57;;
17151;SDS011;8691;50.828;4.700;2022-12-08T03:13:42;27.73;;;19.93;;
17151;SDS011;8691;50.828;4.700;2022-12-08T03:16:07;27.77;;;17.93;;
17151;SDS011;8691;50.828;4.700;2022-12-08T03:18:34;35.07;;;20.10;;
17151;SDS011;8691;50.828;4.700;2022-12-08T03:20:59;33.17;;;20.37;;
17151;SDS011;8691;50.828;4.700;2022-12-08T03:23:26;34.83;;;19.33;;
17151;SDS011;8691;50.828;4.700;2022-12-08T03:26:40;30.57;;;19.20;;
17151;SDS011;8691;50.828;4.700;2022-12-08T03:28:19;32.70;;;20.30;;
17151;SDS011;8691;50.828;4.700;2022-12-08T03:30:46;29.03;;;19.10;;
17151;SDS011;8691;50.828;4.700;2022-12-08T03:33:14;32.67;;;19.90;;
17151;SDS011;8691;50.828;4.700;2022-12-08T03:35:42;28.13;;;18.80;;
17151;SDS011;8691;50.828;4.700;2022-12-08T03:38:14;32.17;;;19.27;;
17151;SDS011;8691;50.828;4.700;2022-12-08T03:40:35;32.83;;;20.30;;
17151;SDS011;8691;50.828;4.700;2022-12-08T03:43:02;27.97;;;18.37;;
17151;SDS011;8691;50.828;4.700;2022-12-08T03:45:29;28.83;;;18.70;;
17151;SDS011;8691;50.828;4.700;2022-12-08T03:47:56;29.63;;;18.13;;
17151;SDS011;8691;50.828;4.700;2022-12-08T03:50:23;29.33;;;17.93;;
17151;SDS011;8691;50.828;4.700;2022-12-08T03:52:50;29.77;;;18.90;;
17151;SDS011;8691;50.828;4.700;2022-12-08T03:55:17;30.47;;;18.70;;
17151;SDS011;8691;50.828;4.700;2022-12-08T03:57:44;27.60;;;18.13;;
17151;SDS011;8691;50.828;4.700;2022-12-08T04:00:13;30.20;;;18.67;;
17151;SDS011;8691;50.828;4.700;2022-12-08T04:02:38;26.17;;;17.53;;
17151;SDS011;8691;50.828;4.700;2022-12-08T04:05:05;24.07;;;18.30;;
17151;SDS011;8691;50.828;4.700;2022-12-08T04:07:32;26.07;;;18.23;;
17151;SDS011;8691;50.828;4.700;2022-12-08T04:09:59;30.00;;;18.00;;
17151;SDS011;8691;50.828;4.700;2022-12-08T04:12:26;28.13;;;17.70;;
17151;SDS011;8691;50.828;4.700;2022-12-08T04:14:53;27.00;;;17.50;;
17151;SDS011;8691;50.828;4.700;2022-12-08T04:17:20;29.00;;;18.43;;
17151;SDS011;8691;50.828;4.700;2022-12-08T04:19:47;28.70;;;18.10;;
17151;SDS011;8691;50.828;4.700;2022-12-08T04:22:14;31.63;;;19.10;;
17151;SDS011;8691;50.828;4.700;2022-12-08T04:24:41;26.87;;;18.90;;
17151;SDS011;8691;50.828;4.700;2022-12-08T04:27:08;26.53;;;18.70;;
17151;SDS011;8691;50.828;4.700;2022-12-08T04:29:34;28.73;;;19.13;;
17151;SDS011;8691;50.828;4.700;2022-12-08T04:32:01;30.20;;;19.47;;
17151;SDS011;8691;50.828;4.700;2022-12-08T04:34:28;24.50;;;17.23;;
17151;SDS011;8691;50.828;4.700;2022-12-08T04:36:54;29.17;;;18.30;;
17151;SDS011;8691;50.828;4.700;2022-12-08T04:39:21;27.80;;;17.93;;
17151;SDS011;8691;50.828;4.700;2022-12-08T04:41:47;23.87;;;17.00;;
17151;SDS011;8691;50.828;4.700;2022-12-08T04:44:14;27.27;;;18.80;;
17151;SDS011;8691;50.828;4.700;2022-12-08T04:46:41;32.97;;;26.03;;
17151;SDS011;8691;50.828;4.700;2022-12-08T04:49:08;34.60;;;26.50;;
17151;SDS011;8691;50.828;4.700;2022-12-08T04:51:35;32.00;;;25.77;;
17151;SDS011;8691;50.828;4.700;2022-12-08T04:54:01;31.50;;;26.33;;
17151;SDS011;8691;50.828;4.700;2022-12-08T04:56:28;32.93;;;25.63;;
17151;SDS011;8691;50.828;4.700;2022-12-08T04:58:55;33.37;;;25.63;;
17151;SDS011;8691;50.828;4.700;2022-12-08T05:01:23;31.57;;;24.77;;
17151;SDS011;8691;50.828;4.700;2022-12-08T05:03:49;25.50;;;18.70;;
17151;SDS011;8691;50.828;4.700;2022-12-08T05:06:17;23.37;;;17.13;;
17151;SDS011;8691;50.828;4.700;2022-12-08T05:08:43;20.07;;;16.33;;
17151;SDS011;8691;50.828;4.700;2022-12-08T05:11:11;20.77;;;15.10;;
17151;SDS011;8691;50.828;4.700;2022-12-08T05:13:37;14.27;;;11.63;;
17151;SDS011;8691;50.828;4.700;2022-12-08T05:16:06;22.53;;;15.77;;
17151;SDS011;8691;50.828;4.700;2022-12-08T05:18:31;24.00;;;15.77;;
17151;SDS011;8691;50.828;4.700;2022-12-08T05:20:58;21.53;;;13.67;;
17151;SDS011;8691;50.828;4.700;2022-12-08T05:23:25;22.33;;;15.33;;
17151;SDS011;8691;50.828;4.700;2022-12-08T05:25:51;22.80;;;15.07;;
17151;SDS011;8691;50.828;4.700;2022-12-08T05:28:18;22.30;;;14.87;;
17151;SDS011;8691;50.828;4.700;2022-12-08T05:30:45;30.20;;;23.60;;
17151;SDS011;8691;50.828;4.700;2022-12-08T05:33:12;31.53;;;23.93;;
17151;SDS011;8691;50.828;4.700;2022-12-08T05:35:39;29.98;;;24.42;;
17151;SDS011;8691;50.828;4.700;2022-12-08T05:38:06;26.57;;;18.20;;
17151;SDS011;8691;50.828;4.700;2022-12-08T05:40:35;22.80;;;16.23;;
17151;SDS011;8691;50.828;4.700;2022-12-08T05:43:00;26.73;;;16.03;;
17151;SDS011;8691;50.828;4.700;2022-12-08T05:45:27;23.87;;;17.00;;
17151;SDS011;8691;50.828;4.700;2022-12-08T05:47:54;26.27;;;15.83;;
17151;SDS011;8691;50.828;4.700;2022-12-08T05:50:21;31.27;;;23.50;;
17151;SDS011;8691;50.828;4.700;2022-12-08T05:52:48;29.90;;;24.70;;
17151;SDS011;8691;50.828;4.700;2022-12-08T05:55:14;27.57;;;18.00;;
17151;SDS011;8691;50.828;4.700;2022-12-08T05:57:41;25.13;;;17.47;;
17151;SDS011;8691;50.828;4.700;2022-12-08T06:00:08;24.50;;;15.60;;
17151;SDS011;8691;50.828;4.700;2022-12-08T06:02:34;23.30;;;16.77;;
17151;SDS011;8691;50.828;4.700;2022-12-08T06:05:01;25.83;;;15.67;;
17151;SDS011;8691;50.828;4.700;2022-12-08T06:07:28;25.53;;;16.07;;
17151;SDS011;8691;50.828;4.700;2022-12-08T06:09:56;33.03;;;24.88;;
17151;SDS011;8691;50.828;4.700;2022-12-08T06:12:23;26.80;;;17.97;;
17151;SDS011;8691;50.828;4.700;2022-12-08T06:14:50;26.00;;;17.27;;
17151;SDS011;8691;50.828;4.700;2022-12-08T06:17:17;20.37;;;14.97;;
17151;SDS011;8691;50.828;4.700;2022-12-08T06:19:44;22.33;;;15.83;;
17151;SDS011;8691;50.828;4.700;2022-12-08T06:22:11;21.97;;;15.27;;
17151;SDS011;8691;50.828;4.700;2022-12-08T06:24:37;25.20;;;15.33;;
17151;SDS011;8691;50.828;4.700;2022-12-08T06:27:04;24.80;;;15.00;;
17151;SDS011;8691;50.828;4.700;2022-12-08T06:29:30;24.43;;;14.27;;
17151;SDS011;8691;50.828;4.700;2022-12-08T06:31:57;23.77;;;15.73;;
17151;SDS011;8691;50.828;4.700;2022-12-08T06:34:24;20.77;;;13.83;;
17151;SDS011;8691;50.828;4.700;2022-12-08T06:36:51;23.33;;;14.90;;
17151;SDS011;8691;50.828;4.700;2022-12-08T06:39:18;22.57;;;15.83;;
17151;SDS011;8691;50.828;4.700;2022-12-08T06:41:45;22.13;;;15.43;;
17151;SDS011;8691;50.828;4.700;2022-12-08T06:44:30;23.10;;;14.87;;
17151;SDS011;8691;50.828;4.700;2022-12-08T06:46:56;20.50;;;14.70;;
17151;SDS011;8691;50.828;4.700;2022-12-08T06:49:23;22.00;;;14.77;;
17151;SDS011;8691;50.828;4.700;2022-12-08T06:51:49;20.97;;;13.77;;
17151;SDS011;8691;50.828;4.700;2022-12-08T06:54:17;18.80;;;13.87;;
17151;SDS011;8691;50.828;4.700;2022-12-08T06:56:43;24.10;;;14.57;;
17151;SDS011;8691;50.828;4.700;2022-12-08T06:59:11;22.50;;;14.87;;
17151;SDS011;8691;50.828;4.700;2022-12-08T07:01:37;19.00;;;14.30;;
17151;SDS011;8691;50.828;4.700;2022-12-08T07:04:05;21.93;;;14.70;;
17151;SDS011;8691;50.828;4.700;2022-12-08T07:06:31;22.40;;;14.53;;
17151;SDS011;8691;50.828;4.700;2022-12-08T07:08:59;18.93;;;12.90;;
17151;SDS011;8691;50.828;4.700;2022-12-08T07:11:25;19.80;;;13.60;;
17151;SDS011;8691;50.828;4.700;2022-12-08T07:13:54;20.10;;;14.30;;
17151;SDS011;8691;50.828;4.700;2022-12-08T07:16:19;23.30;;;14.73;;
17151;SDS011;8691;50.828;4.700;2022-12-08T07:18:46;20.50;;;13.23;;
17151;SDS011;8691;50.828;4.700;2022-12-08T07:21:14;25.30;;;14.87;;
17151;SDS011;8691;50.828;4.700;2022-12-08T07:23:40;24.53;;;15.60;;
17151;SDS011;8691;50.828;4.700;2022-12-08T07:26:08;19.37;;;13.57;;
17151;SDS011;8691;50.828;4.700;2022-12-08T07:28:34;23.27;;;13.80;;
17151;SDS011;8691;50.828;4.700;2022-12-08T07:31:00;22.30;;;14.67;;
17151;SDS011;8691;50.828;4.700;2022-12-08T07:33:27;20.37;;;14.57;;
17151;SDS011;8691;50.828;4.700;2022-12-08T07:35:57;22.43;;;14.23;;
17151;SDS011;8691;50.828;4.700;2022-12-08T07:38:24;25.77;;;14.40;;
17151;SDS011;8691;50.828;4.700;2022-12-08T07:40:51;23.27;;;14.47;;
17151;SDS011;8691;50.828;4.700;2022-12-08T07:43:18;19.03;;;13.47;;
17151;SDS011;8691;50.828;4.700;2022-12-08T07:45:45;21.30;;;13.40;;
17151;SDS011;8691;50.828;4.700;2022-12-08T07:48:12;21.10;;;14.53;;
17151;SDS011;8691;50.828;4.700;2022-12-08T07:50:39;21.77;;;14.33;;
17151;SDS011;8691;50.828;4.700;2022-12-08T07:53:05;20.20;;;13.50;;
17151;SDS011;8691;50.828;4.700;2022-12-08T07:55:32;24.00;;;14.07;;
17151;SDS011;8691;50.828;4.700;2022-12-08T07:57:58;23.93;;;14.43;;
17151;SDS011;8691;50.828;4.700;2022-12-08T08:00:25;21.30;;;14.23;;
17151;SDS011;8691;50.828;4.700;2022-12-08T08:02:52;24.20;;;16.53;;
17151;SDS011;8691;50.828;4.700;2022-12-08T08:05:19;16.60;;;13.40;;
17151;SDS011;8691;50.828;4.700;2022-12-08T08:07:46;73.03;;;35.17;;
17151;SDS011;8691;50.828;4.700;2022-12-08T08:10:13;27.40;;;18.40;;
17151;SDS011;8691;50.828;4.700;2022-12-08T08:12:40;22.37;;;14.37;;
17151;SDS011;8691;50.828;4.700;2022-12-08T08:15:08;20.07;;;13.33;;
17151;SDS011;8691;50.828;4.700;2022-12-08T08:17:34;21.43;;;12.97;;
17151;SDS011;8691;50.828;4.700;2022-12-08T08:20:00;21.03;;;13.30;;
17151;SDS011;8691;50.828;4.700;2022-12-08T08:22:28;19.53;;;14.10;;
17151;SDS011;8691;50.828;4.700;2022-12-08T08:24:54;23.50;;;13.43;;
17151;SDS011;8691;50.828;4.700;2022-12-08T08:27:22;20.07;;;12.77;;
17151;SDS011;8691;50.828;4.700;2022-12-08T08:29:48;19.47;;;12.73;;
17151;SDS011;8691;50.828;4.700;2022-12-08T08:32:15;18.43;;;12.63;;
17151;SDS011;8691;50.828;4.700;2022-12-08T08:34:42;16.50;;;12.43;;
17151;SDS011;8691;50.828;4.700;2022-12-08T08:37:10;19.53;;;12.30;;
17151;SDS011;8691;50.828;4.700;2022-12-08T08:39:36;19.50;;;13.00;;
17151;SDS011;8691;50.828;4.700;2022-12-08T08:42:03;20.17;;;12.03;;
17151;SDS011;8691;50.828;4.700;2022-12-08T08:44:30;19.57;;;12.50;;
17151;SDS011;8691;50.828;4.700;2022-12-08T08:46:56;18.30;;;12.20;;
17151;SDS011;8691;50.828;4.700;2022-12-08T08:49:23;16.37;;;12.60;;
17151;SDS011;8691;50.828;4.700;2022-12-08T08:51:49;20.00;;;12.07;;
17151;SDS011;8691;50.828;4.700;2022-12-08T08:54:16;18.93;;;11.33;;
17151;SDS011;8691;50.828;4.700;2022-12-08T08:56:43;17.70;;;10.80;;
17151;SDS011;8691;50.828;4.700;2022-12-08T08:59:09;23.87;;;16.60;;
17151;SDS011;8691;50.828;4.700;2022-12-08T09:01:36;19.43;;;12.63;;
17151;SDS011;8691;50.828;4.700;2022-12-08T09:04:03;21.13;;;12.37;;
17151;SDS011;8691;50.828;4.700;2022-12-08T09:06:30;20.77;;;12.10;;
17151;SDS011;8691;50.828;4.700;2022-12-08T09:08:57;18.77;;;12.57;;
17151;SDS011;8691;50.828;4.700;2022-12-08T09:11:24;21.40;;;13.63;;
17151;SDS011;8691;50.828;4.700;2022-12-08T09:13:51;22.17;;;15.90;;
17151;SDS011;8691;50.828;4.700;2022-12-08T09:16:18;22.73;;;13.43;;
17151;SDS011;8691;50.828;4.700;2022-12-08T09:18:45;21.67;;;13.27;;
17151;SDS011;8691;50.828;4.700;2022-12-08T09:21:13;20.20;;;13.37;;
17151;SDS011;8691;50.828;4.700;2022-12-08T09:23:38;17.27;;;13.17;;
17151;SDS011;8691;50.828;4.700;2022-12-08T09:26:05;20.20;;;14.23;;
17151;SDS011;8691;50.828;4.700;2022-12-08T09:28:32;23.77;;;16.87;;
17151;SDS011;8691;50.828;4.700;2022-12-08T09:30:58;19.17;;;12.93;;
17151;SDS011;8691;50.828;4.700;2022-12-08T09:33:25;21.27;;;15.00;;
17151;SDS011;8691;50.828;4.700;2022-12-08T09:35:52;19.63;;;13.63;;
17151;SDS011;8691;50.828;4.700;2022-12-08T09:38:18;27.57;;;24.67;;
17151;SDS011;8691;50.828;4.700;2022-12-08T09:40:52;23.97;;;15.43;;
17151;SDS011;8691;50.828;4.700;2022-12-08T09:43:31;19.67;;;13.70;;
17151;SDS011;8691;50.828;4.700;2022-12-08T09:46:02;20.60;;;14.40;;
17151;SDS011;8691;50.828;4.700;2022-12-08T09:48:29;23.87;;;14.37;;
17151;SDS011;8691;50.828;4.700;2022-12-08T09:50:59;23.23;;;14.80;;
17151;SDS011;8691;50.828;4.700;2022-12-08T09:53:29;26.47;;;20.27;;
17151;SDS011;8691;50.828;4.700;2022-12-08T09:56:07;25.77;;;19.90;;
17151;SDS011;8691;50.828;4.700;2022-12-08T10:01:27;23.17;;;15.50;;
17151;SDS011;8691;50.828;4.700;2022-12-08T10:03:53;21.93;;;14.00;;
17151;SDS011;8691;50.828;4.700;2022-12-08T10:06:24;19.07;;;13.53;;
17151;SDS011;8691;50.828;4.700;2022-12-08T10:09:16;19.17;;;12.00;;
17151;SDS011;8691;50.828;4.700;2022-12-08T10:14:19;17.53;;;12.60;;
17151;SDS011;8691;50.828;4.700;2022-12-08T10:16:52;19.23;;;13.53;;
17151;SDS011;8691;50.828;4.700;2022-12-08T10:19:21;19.93;;;13.10;;
17151;SDS011;8691;50.828;4.700;2022-12-08T10:21:48;19.63;;;12.60;;
17151;SDS011;8691;50.828;4.700;2022-12-08T10:24:17;20.70;;;13.00;;
17151;SDS011;8691;50.828;4.700;2022-12-08T10:26:59;24.60;;;16.93;;
17151;SDS011;8691;50.828;4.700;2022-12-08T10:29:25;23.67;;;17.07;;
17151;SDS011;8691;50.828;4.700;2022-12-08T10:31:52;22.93;;;16.23;;
17151;SDS011;8691;50.828;4.700;2022-12-08T10:34:21;22.00;;;16.20;;
17151;SDS011;8691;50.828;4.700;2022-12-08T10:36:51;20.93;;;16.33;;
17151;SDS011;8691;50.828;4.700;2022-12-08T10:39:29;16.97;;;12.20;;
17151;SDS011;8691;50.828;4.700;2022-12-08T10:47:39;18.60;;;12.90;;
17151;SDS011;8691;50.828;4.700;2022-12-08T10:50:20;18.17;;;10.87;;
17151;SDS011;8691;50.828;4.700;2022-12-08T10:52:53;18.80;;;13.00;;
17151;SDS011;8691;50.828;4.700;2022-12-08T10:55:19;19.37;;;13.07;;
17151;SDS011;8691;50.828;4.700;2022-12-08T10:57:46;14.10;;;10.53;;
17151;SDS011;8691;50.828;4.700;2022-12-08T11:00:19;17.33;;;9.90;;
17151;SDS011;8691;50.828;4.700;2022-12-08T11:02:55;18.17;;;9.03;;
17151;SDS011;8691;50.828;4.700;2022-12-08T11:05:25;15.03;;;7.37;;
17151;SDS011;8691;50.828;4.700;2022-12-08T11:07:50;10.50;;;7.93;;
17151;SDS011;8691;50.828;4.700;2022-12-08T11:10:17;11.83;;;8.57;;
17151;SDS011;8691;50.828;4.700;2022-12-08T11:12:44;14.40;;;8.30;;
17151;SDS011;8691;50.828;4.700;2022-12-08T11:15:14;12.00;;;8.10;;
17151;SDS011;8691;50.828;4.700;2022-12-08T11:17:40;16.73;;;7.70;;
17151;SDS011;8691;50.828;4.700;2022-12-08T11:22:38;10.90;;;6.90;;
17151;SDS011;8691;50.828;4.700;2022-12-08T11:27:43;13.80;;;7.33;;
17151;SDS011;8691;50.828;4.700;2022-12-08T11:30:14;12.63;;;7.63;;
17151;SDS011;8691;50.828;4.700;2022-12-08T11:32:42;12.87;;;7.43;;
17151;SDS011;8691;50.828;4.700;2022-12-08T11:35:12;12.65;;;9.60;;
17151;SDS011;8691;50.828;4.700;2022-12-08T11:37:39;12.53;;;9.17;;
17151;SDS011;8691;50.828;4.700;2022-12-08T11:40:06;13.02;;;9.20;;
17151;SDS011;8691;50.828;4.700;2022-12-08T11:42:34;16.03;;;8.70;;
17151;SDS011;8691;50.828;4.700;2022-12-08T11:45:06;9.57;;;7.30;;
17151;SDS011;8691;50.828;4.700;2022-12-08T11:47:36;12.33;;;7.43;;
17151;SDS011;8691;50.828;4.700;2022-12-08T11:50:24;13.53;;;10.57;;
17151;SDS011;8691;50.828;4.700;2022-12-08T11:52:50;16.33;;;10.77;;
17151;SDS011;8691;50.828;4.700;2022-12-08T11:55:25;12.63;;;8.30;;
17151;SDS011;8691;50.828;4.700;2022-12-08T11:57:53;14.93;;;7.40;;
17151;SDS011;8691;50.828;4.700;2022-12-08T12:00:19;11.23;;;7.27;;
17151;SDS011;8691;50.828;4.700;2022-12-08T12:02:47;10.63;;;7.13;;
17151;SDS011;8691;50.828;4.700;2022-12-08T12:05:28;11.10;;;7.40;;
17151;SDS011;8691;50.828;4.700;2022-12-08T12:08:04;8.87;;;6.30;;
17151;SDS011;8691;50.828;4.700;2022-12-08T12:13:04;11.73;;;7.53;;
17151;SDS011;8691;50.828;4.700;2022-12-08T12:20:51;9.50;;;6.70;;
17151;SDS011;8691;50.828;4.700;2022-12-08T12:24:21;11.63;;;8.73;;
17151;SDS011;8691;50.828;4.700;2022-12-08T12:26:01;12.07;;;6.80;;
17151;SDS011;8691;50.828;4.700;2022-12-08T12:28:36;9.63;;;6.90;;
17151;SDS011;8691;50.828;4.700;2022-12-08T12:31:07;11.07;;;6.97;;
17151;SDS011;8691;50.828;4.700;2022-12-08T12:33:33;10.90;;;6.93;;
17151;SDS011;8691;50.828;4.700;2022-12-08T12:36:01;12.43;;;7.03;;
17151;SDS011;8691;50.828;4.700;2022-12-08T12:38:34;12.07;;;6.70;;
17151;SDS011;8691;50.828;4.700;2022-12-08T12:41:21;10.57;;;6.23;;
17151;SDS011;8691;50.828;4.700;2022-12-08T12:44:07;11.63;;;5.90;;
17151;SDS011;8691;50.828;4.700;2022-12-08T12:54:44;10.23;;;6.37;;
17151;SDS011;8691;50.828;4.700;2022-12-08T13:02:24;8.63;;;5.57;;
17151;SDS011;8691;50.828;4.700;2022-12-08T13:07:23;10.00;;;5.47;;
17151;SDS011;8691;50.828;4.700;2022-12-08T13:09:54;9.60;;;6.40;;
17151;SDS011;8691;50.828;4.700;2022-12-08T13:12:19;8.90;;;6.10;;
17151;SDS011;8691;50.828;4.700;2022-12-08T13:14:46;9.87;;;5.90;;
17151;SDS011;8691;50.828;4.700;2022-12-08T13:17:12;9.87;;;5.43;;
17151;SDS011;8691;50.828;4.700;2022-12-08T13:19:38;10.93;;;5.23;;
17151;SDS011;8691;50.828;4.700;2022-12-08T13:30:45;9.03;;;4.70;;
17151;SDS011;8691;50.828;4.700;2022-12-08T13:33:18;13.57;;;4.90;;
17151;SDS011;8691;50.828;4.700;2022-12-08T13:35:45;7.80;;;5.10;;
17151;SDS011;8691;50.828;4.700;2022-12-08T13:38:12;9.33;;;5.30;;
17151;SDS011;8691;50.828;4.700;2022-12-08T13:40:36;5.97;;;4.63;;
17151;SDS011;8691;50.828;4.700;2022-12-08T13:43:51;9.20;;;5.50;;
17151;SDS011;8691;50.828;4.700;2022-12-08T13:45:30;10.23;;;5.60;;
17151;SDS011;8691;50.828;4.700;2022-12-08T13:48:05;8.83;;;5.03;;
17151;SDS011;8691;50.828;4.700;2022-12-08T13:51:09;7.50;;;5.23;;
17151;SDS011;8691;50.828;4.700;2022-12-08T13:53:34;7.40;;;5.63;;
17151;SDS011;8691;50.828;4.700;2022-12-08T13:55:59;10.23;;;6.93;;
17151;SDS011;8691;50.828;4.700;2022-12-08T13:58:35;8.47;;;6.87;;
17151;SDS011;8691;50.828;4.700;2022-12-08T14:01:06;8.83;;;5.77;;
17151;SDS011;8691;50.828;4.700;2022-12-08T14:03:29;10.47;;;5.30;;
17151;SDS011;8691;50.828;4.700;2022-12-08T14:05:56;11.07;;;6.40;;
17151;SDS011;8691;50.828;4.700;2022-12-08T14:08:29;6.63;;;5.70;;
17151;SDS011;8691;50.828;4.700;2022-12-08T14:11:00;10.00;;;5.70;;
17151;SDS011;8691;50.828;4.700;2022-12-08T14:13:25;9.80;;;5.77;;
17151;SDS011;8691;50.828;4.700;2022-12-08T14:15:51;7.17;;;5.90;;
17151;SDS011;8691;50.828;4.700;2022-12-08T14:18:25;10.60;;;5.93;;
17151;SDS011;8691;50.828;4.700;2022-12-08T14:21:04;13.67;;;5.80;;
17151;SDS011;8691;50.828;4.700;2022-12-08T14:23:32;7.63;;;5.60;;
17151;SDS011;8691;50.828;4.700;2022-12-08T14:25:56;10.53;;;7.87;;
17151;SDS011;8691;50.828;4.700;2022-12-08T14:28:24;11.43;;;7.97;;
17151;SDS011;8691;50.828;4.700;2022-12-08T14:30:50;9.43;;;6.60;;
17151;SDS011;8691;50.828;4.700;2022-12-08T14:33:17;7.83;;;5.93;;
17151;SDS011;8691;50.828;4.700;2022-12-08T14:35:48;7.60;;;6.00;;
17151;SDS011;8691;50.828;4.700;2022-12-08T14:40:40;10.60;;;6.03;;
17151;SDS011;8691;50.828;4.700;2022-12-08T14:50:55;11.43;;;6.40;;
17151;SDS011;8691;50.828;4.700;2022-12-08T14:53:20;10.50;;;6.23;;
17151;SDS011;8691;50.828;4.700;2022-12-08T14:55:47;7.67;;;6.43;;
17151;SDS011;8691;50.828;4.700;2022-12-08T14:58:21;4.10;;;3.57;;
17151;SDS011;8691;50.828;4.700;2022-12-08T15:00:47;2.60;;;2.03;;
17151;SDS011;8691;50.828;4.700;2022-12-08T15:03:15;3.83;;;2.20;;
17151;SDS011;8691;50.828;4.700;2022-12-08T15:05:42;3.73;;;2.17;;
17151;SDS011;8691;50.828;4.700;2022-12-08T15:08:08;3.53;;;1.80;;
17151;SDS011;8691;50.828;4.700;2022-12-08T15:10:35;2.10;;;1.90;;
17151;SDS011;8691;50.828;4.700;2022-12-08T15:18:17;2.43;;;2.20;;
17151;SDS011;8691;50.828;4.700;2022-12-08T15:23:18;2.87;;;2.17;;
17151;SDS011;8691;50.828;4.700;2022-12-08T15:25:44;3.97;;;1.80;;
17151;SDS011;8691;50.828;4.700;2022-12-08T15:28:11;1.87;;;1.77;;
17151;SDS011;8691;50.828;4.700;2022-12-08T15:30:38;2.90;;;1.90;;
17151;SDS011;8691;50.828;4.700;2022-12-08T15:33:04;3.43;;;1.93;;
17151;SDS011;8691;50.828;4.700;2022-12-08T15:35:31;2.40;;;2.20;;
17151;SDS011;8691;50.828;4.700;2022-12-08T15:37:58;3.60;;;2.50;;
17151;SDS011;8691;50.828;4.700;2022-12-08T15:40:25;3.63;;;2.20;;
17151;SDS011;8691;50.828;4.700;2022-12-08T15:42:52;2.70;;;2.40;;
17151;SDS011;8691;50.828;4.700;2022-12-08T15:45:21;3.60;;;2.63;;
17151;SDS011;8691;50.828;4.700;2022-12-08T15:47:47;3.33;;;2.70;;
17151;SDS011;8691;50.828;4.700;2022-12-08T15:50:18;3.00;;;2.20;;
17151;SDS011;8691;50.828;4.700;2022-12-08T15:52:43;2.63;;;2.30;;
17151;SDS011;8691;50.828;4.700;2022-12-08T15:55:13;4.67;;;2.83;;
17151;SDS011;8691;50.828;4.700;2022-12-08T15:57:39;4.47;;;2.90;;
17151;SDS011;8691;50.828;4.700;2022-12-08T16:00:06;3.67;;;3.10;;
17151;SDS011;8691;50.828;4.700;2022-12-08T16:02:32;4.53;;;3.30;;
17151;SDS011;8691;50.828;4.700;2022-12-08T16:04:59;4.67;;;4.27;;
17151;SDS011;8691;50.828;4.700;2022-12-08T16:07:27;4.40;;;3.93;;
17151;SDS011;8691;50.828;4.700;2022-12-08T16:09:52;4.67;;;4.20;;
17151;SDS011;8691;50.828;4.700;2022-12-08T16:12:20;4.67;;;4.20;;
17151;SDS011;8691;50.828;4.700;2022-12-08T16:15:06;5.80;;;4.33;;
17151;SDS011;8691;50.828;4.700;2022-12-08T16:17:33;5.00;;;4.50;;